Time;durP1;ratioP1;P1;durP2;ratioP2;P2;SDS_P1;SDS_P2;PMS_P1;PMS_P2;Temp;Humidity;BMP_temperature;BMP_pressure;BME280_temperature;BME280_humidity;BME280_pressure;Samples;Min_cycle;Max_cycle;Signal;HPM_P1;HPM_P2
2021/09/06 00:02:07;;;;;;;23.83;15.38;;;14.40;99.90;;;;;;4902472;29;39602;-78
2021/09/06 00:04:34;;;;;;;23.13;16.52;;;14.40;99.90;;;;;;4893124;29;39902;-79
2021/09/06 00:07:00;;;;;;;19.15;14.15;;;14.40;99.90;;;;;;4903505;29;37454;-79
2021/09/06 00:09:26;;;;;;;18.83;14.60;;;14.30;99.90;;;;;;4899022;28;41268;-79
2021/09/06 00:11:52;;;;;;;19.80;15.07;;;14.30;99.90;;;;;;4888766;29;38694;-79
2021/09/06 00:14:18;;;;;;;23.95;15.90;;;14.30;99.90;;;;;;4896848;29;38891;-79
2021/09/06 00:16:44;;;;;;;21.40;15.07;;;14.20;99.90;;;;;;4899608;29;38018;-79
2021/09/06 00:19:11;;;;;;;19.52;13.90;;;14.30;99.90;;;;;;4903809;29;37630;-79
2021/09/06 00:21:37;;;;;;;25.23;15.13;;;14.20;99.90;;;;;;4903205;28;38928;-79
2021/09/06 00:24:03;;;;;;;21.77;14.57;;;14.20;99.90;;;;;;4903380;29;36888;-78
2021/09/06 00:26:29;;;;;;;24.38;14.50;;;14.20;99.90;;;;;;4906362;29;37858;-79
2021/09/06 00:28:58;;;;;;;22.95;15.45;;;14.20;99.90;;;;;;4902204;29;39949;-79
2021/09/06 00:31:24;;;;;;;28.40;16.85;;;14.10;99.90;;;;;;4905774;29;39500;-79
2021/09/06 00:33:50;;;;;;;21.65;15.00;;;14.10;99.90;;;;;;4901000;28;39394;-79
2021/09/06 00:36:16;;;;;;;20.23;14.52;;;14.10;99.90;;;;;;4899021;29;37153;-79
2021/09/06 00:38:42;;;;;;;22.23;16.02;;;14.00;99.90;;;;;;4897688;29;39084;-79
2021/09/06 00:41:08;;;;;;;23.98;16.60;;;14.00;99.90;;;;;;4904636;29;40010;-79
2021/09/06 00:43:36;;;;;;;20.67;14.65;;;13.90;99.90;;;;;;4905048;29;39356;-79
2021/09/06 00:46:03;;;;;;;25.27;16.52;;;14.00;99.90;;;;;;4898378;28;37278;-78
2021/09/06 00:48:30;;;;;;;19.48;14.48;;;13.90;99.90;;;;;;4907995;29;39523;-79
2021/09/06 00:50:57;;;;;;;21.63;15.38;;;13.90;99.90;;;;;;4904304;29;38862;-79
2021/09/06 00:53:23;;;;;;;22.38;15.65;;;13.90;99.90;;;;;;4901952;29;39123;-78
2021/09/06 00:55:50;;;;;;;20.63;15.35;;;13.80;99.90;;;;;;4900980;29;38425;-79
2021/09/06 00:58:17;;;;;;;22.30;15.77;;;13.80;99.90;;;;;;4897394;29;38799;-78
2021/09/06 01:00:44;;;;;;;19.40;15.00;;;13.80;99.90;;;;;;4903425;29;38715;-79
2021/09/06 01:03:10;;;;;;;21.98;15.32;;;13.80;99.90;;;;;;4905680;29;39161;-79
2021/09/06 01:05:36;;;;;;;20.77;16.02;;;13.80;99.90;;;;;;4903841;28;37774;-79
2021/09/06 01:08:02;;;;;;;19.50;14.75;;;13.80;99.90;;;;;;4913303;28;38805;-78
2021/09/06 01:10:28;;;;;;;21.33;14.35;;;13.80;99.90;;;;;;4911454;28;39572;-79
2021/09/06 01:12:54;;;;;;;20.83;14.75;;;13.80;99.90;;;;;;4903549;29;36117;-79
2021/09/06 01:15:20;;;;;;;27.75;16.65;;;13.70;99.90;;;;;;4899903;29;38377;-79
2021/09/06 01:17:46;;;;;;;29.10;18.65;;;13.70;99.90;;;;;;4904390;29;38468;-79
2021/09/06 01:20:13;;;;;;;26.52;17.25;;;13.70;99.90;;;;;;4900586;28;38912;-79
2021/09/06 01:22:39;;;;;;;23.73;17.42;;;13.60;99.90;;;;;;4898584;29;41413;-79
2021/09/06 01:25:06;;;;;;;24.17;16.63;;;13.70;99.90;;;;;;4902953;29;38161;-78
2021/09/06 01:27:32;;;;;;;22.35;16.83;;;13.60;99.90;;;;;;4886683;29;40216;-79
2021/09/06 01:29:59;;;;;;;28.58;17.13;;;13.60;99.90;;;;;;4904169;29;38906;-78
2021/09/06 01:32:25;;;;;;;22.10;16.45;;;13.60;99.90;;;;;;4899172;28;38635;-79
2021/09/06 01:34:51;;;;;;;23.20;16.40;;;13.50;99.90;;;;;;4901966;29;37172;-79
2021/09/06 01:37:17;;;;;;;24.30;16.50;;;13.50;99.90;;;;;;4891607;29;39547;-79
2021/09/06 01:39:43;;;;;;;21.30;15.70;;;13.50;99.90;;;;;;4899580;29;40208;-79
2021/09/06 01:42:09;;;;;;;25.08;16.83;;;13.50;99.90;;;;;;4901371;28;39494;-79
2021/09/06 01:44:35;;;;;;;23.05;16.00;;;13.50;99.90;;;;;;4901962;29;38660;-79
2021/09/06 01:47:01;;;;;;;26.63;17.13;;;13.50;99.90;;;;;;4907095;29;39863;-78
2021/09/06 01:49:28;;;;;;;27.80;18.80;;;13.50;99.90;;;;;;4915884;28;39524;-79
2021/09/06 01:51:54;;;;;;;23.30;16.02;;;13.40;99.90;;;;;;4907385;29;39386;-79
2021/09/06 01:54:20;;;;;;;26.13;17.35;;;13.40;99.90;;;;;;4901169;29;39231;-79
2021/09/06 01:56:46;;;;;;;26.02;17.02;;;13.40;99.90;;;;;;4903100;29;39155;-79
2021/09/06 01:59:12;;;;;;;27.55;19.02;;;13.40;99.90;;;;;;4905878;29;38866;-79
2021/09/06 02:01:38;;;;;;;25.80;17.80;;;13.40;99.90;;;;;;4900528;29;39722;-79
2021/09/06 02:04:04;;;;;;;23.33;16.77;;;13.30;99.90;;;;;;4903068;29;38019;-78
2021/09/06 02:06:30;;;;;;;26.55;17.10;;;13.30;99.90;;;;;;4906403;28;38626;-80
2021/09/06 02:08:56;;;;;;;29.33;19.80;;;13.30;99.90;;;;;;4888912;29;39063;-79
2021/09/06 02:11:23;;;;;;;28.35;19.48;;;13.30;99.90;;;;;;4897402;28;39059;-79
2021/09/06 02:13:50;;;;;;;28.92;17.65;;;13.30;99.90;;;;;;4900853;29;38357;-79
2021/09/06 02:16:16;;;;;;;30.15;19.60;;;13.30;99.90;;;;;;4897931;28;37800;-79
2021/09/06 02:18:42;;;;;;;30.13;18.92;;;13.30;99.90;;;;;;4899421;29;39131;-79
2021/09/06 02:21:08;;;;;;;27.63;18.23;;;13.30;99.90;;;;;;4905574;29;39100;-78
2021/09/06 02:23:34;;;;;;;28.15;17.88;;;13.20;99.90;;;;;;4900468;29;38769;-79
2021/09/06 02:26:00;;;;;;;23.10;16.70;;;13.20;99.90;;;;;;4900343;29;38634;-79
2021/09/06 02:28:26;;;;;;;24.58;16.98;;;13.20;99.90;;;;;;4912115;28;42020;-78
2021/09/06 02:30:53;;;;;;;26.90;18.23;;;13.20;99.90;;;;;;4904230;29;38950;-78
2021/09/06 02:33:19;;;;;;;27.38;17.08;;;13.20;99.90;;;;;;4899550;29;38173;-78
2021/09/06 02:35:45;;;;;;;28.42;18.27;;;13.20;99.90;;;;;;4903034;29;39330;-79
2021/09/06 02:38:11;;;;;;;27.42;17.75;;;13.10;99.90;;;;;;4893656;29;39134;-78
2021/09/06 02:40:37;;;;;;;25.67;17.30;;;13.10;99.90;;;;;;4900474;29;38538;-78
2021/09/06 02:43:03;;;;;;;27.90;18.73;;;13.10;99.90;;;;;;4901945;29;37935;-78
2021/09/06 02:45:29;;;;;;;24.50;17.45;;;13.10;99.90;;;;;;4903553;29;39449;-79
2021/09/06 02:47:55;;;;;;;26.88;17.33;;;13.10;99.90;;;;;;4908180;29;40500;-79
2021/09/06 02:50:21;;;;;;;25.55;17.25;;;13.10;99.90;;;;;;4902042;29;39297;-79
2021/09/06 02:52:48;;;;;;;28.58;18.25;;;13.10;99.90;;;;;;4897358;29;38416;-79
2021/09/06 02:55:14;;;;;;;27.00;17.67;;;13.10;99.90;;;;;;4898399;28;38900;-79
2021/09/06 02:57:40;;;;;;;28.88;18.17;;;13.10;99.90;;;;;;4897855;29;38481;-79
2021/09/06 03:00:06;;;;;;;31.77;20.52;;;13.00;99.90;;;;;;4916544;28;40493;-78
2021/09/06 03:02:32;;;;;;;29.70;19.27;;;13.00;99.90;;;;;;4915720;28;46616;-79
2021/09/06 03:04:58;;;;;;;25.02;17.30;;;13.00;99.90;;;;;;4905800;29;39212;-78
2021/09/06 03:07:24;;;;;;;26.85;16.10;;;13.00;99.90;;;;;;4905291;28;39993;-79
2021/09/06 03:09:50;;;;;;;24.98;17.48;;;12.90;99.90;;;;;;4901851;29;38619;-79
2021/09/06 03:12:17;;;;;;;28.55;17.40;;;12.90;99.90;;;;;;4902540;28;38564;-79
2021/09/06 03:14:43;;;;;;;25.48;17.08;;;12.90;99.90;;;;;;4904928;29;39377;-79
2021/09/06 03:17:09;;;;;;;30.02;17.75;;;12.90;99.90;;;;;;4901105;29;39013;-79
2021/09/06 03:19:35;;;;;;;27.95;17.65;;;12.90;99.90;;;;;;4901642;29;38444;-79
2021/09/06 03:22:01;;;;;;;31.73;18.65;;;12.90;99.90;;;;;;4902511;29;38608;-78
2021/09/06 03:24:27;;;;;;;25.20;17.50;;;12.90;99.90;;;;;;4900915;29;39519;-79
2021/09/06 03:26:53;;;;;;;28.77;17.50;;;12.90;99.90;;;;;;4907252;29;40824;-79
2021/09/06 03:29:20;;;;;;;30.88;18.40;;;12.90;99.90;;;;;;4905188;29;39495;-79
2021/09/06 03:31:46;;;;;;;29.58;18.80;;;12.90;99.90;;;;;;4906349;29;38086;-79
2021/09/06 03:34:12;;;;;;;28.48;19.83;;;12.80;99.90;;;;;;4901621;29;38485;-79
2021/09/06 03:36:38;;;;;;;32.72;20.42;;;12.90;99.90;;;;;;4908066;29;39035;-78
2021/09/06 03:39:04;;;;;;;32.53;20.77;;;12.90;99.90;;;;;;4907601;29;39434;-78
2021/09/06 03:41:32;;;;;;;32.78;20.77;;;12.80;99.90;;;;;;4901932;29;37492;-79
2021/09/06 03:43:58;;;;;;;33.20;21.30;;;12.80;99.90;;;;;;4903147;29;39624;-79
2021/09/06 03:46:25;;;;;;;33.75;21.50;;;12.80;99.90;;;;;;4898888;29;40289;-79
2021/09/06 03:48:51;;;;;;;35.35;22.65;;;12.80;99.90;;;;;;4896233;29;39298;-78
2021/09/06 03:51:17;;;;;;;30.60;19.50;;;12.80;99.90;;;;;;4903302;29;38357;-78
2021/09/06 03:53:43;;;;;;;31.05;19.85;;;12.80;99.90;;;;;;4902379;29;39824;-78
2021/09/06 03:56:09;;;;;;;28.70;19.17;;;12.80;99.90;;;;;;4883952;29;39921;-79
2021/09/06 03:58:35;;;;;;;27.48;19.50;;;12.80;99.90;;;;;;4902268;29;39791;-78
2021/09/06 04:01:01;;;;;;;28.55;20.55;;;12.80;99.90;;;;;;4895413;29;38259;-78
2021/09/06 04:03:28;;;;;;;31.48;21.40;;;12.70;99.90;;;;;;4900895;29;39601;-78
2021/09/06 04:05:54;;;;;;;33.28;21.13;;;12.70;99.90;;;;;;4899137;28;38648;-79
2021/09/06 04:08:20;;;;;;;30.77;20.20;;;12.70;99.90;;;;;;4902729;28;38487;-78
2021/09/06 04:10:46;;;;;;;31.30;20.48;;;12.70;99.90;;;;;;4901374;29;38182;-78
2021/09/06 04:13:12;;;;;;;31.35;20.98;;;12.70;99.90;;;;;;4904964;29;38702;-78
2021/09/06 04:15:38;;;;;;;27.80;19.38;;;12.60;99.90;;;;;;4913924;28;40891;-78
2021/09/06 04:18:04;;;;;;;31.65;20.17;;;12.60;99.90;;;;;;4901578;29;40322;-78
2021/09/06 04:20:30;;;;;;;30.60;19.60;;;12.60;99.90;;;;;;4895550;29;38564;-78
2021/09/06 04:22:56;;;;;;;28.05;18.58;;;12.60;99.90;;;;;;4903872;29;40439;-78
2021/09/06 04:25:22;;;;;;;27.15;18.60;;;12.60;99.90;;;;;;4886357;28;39504;-78
2021/09/06 04:27:48;;;;;;;25.55;17.95;;;12.60;99.90;;;;;;4896414;28;38690;-78
2021/09/06 04:30:14;;;;;;;34.40;21.13;;;12.50;99.90;;;;;;4895802;28;38795;-79
2021/09/06 04:32:40;;;;;;;31.95;20.42;;;12.60;99.90;;;;;;4900774;29;39993;-79
2021/09/06 04:35:07;;;;;;;31.52;20.45;;;12.50;99.90;;;;;;4903450;29;39486;-78
2021/09/06 04:37:33;;;;;;;37.65;22.80;;;12.50;99.90;;;;;;4903827;29;41212;-79
2021/09/06 04:39:59;;;;;;;34.28;22.02;;;12.50;99.90;;;;;;4902493;29;36106;-78
2021/09/06 04:42:25;;;;;;;33.55;22.42;;;12.50;99.90;;;;;;4901207;29;40915;-78
2021/09/06 04:44:51;;;;;;;33.53;20.38;;;12.50;99.90;;;;;;4903546;29;39933;-78
2021/09/06 04:47:19;;;;;;;34.30;22.42;;;12.50;99.90;;;;;;4901294;28;39605;-78
2021/09/06 04:49:45;;;;;;;35.55;22.55;;;12.50;99.90;;;;;;4899436;29;37094;-78
2021/09/06 04:52:12;;;;;;;34.67;22.30;;;12.50;99.90;;;;;;4902617;28;39222;-78
2021/09/06 04:54:38;;;;;;;36.50;23.50;;;12.50;99.90;;;;;;4898175;29;40441;-78
2021/09/06 04:57:04;;;;;;;33.00;21.77;;;12.50;99.90;;;;;;4898940;28;38363;-78
2021/09/06 04:59:30;;;;;;;37.05;23.38;;;12.50;99.90;;;;;;4898124;29;38187;-78
2021/09/06 05:01:56;;;;;;;37.58;24.48;;;12.50;99.90;;;;;;4900086;29;39900;-79
2021/09/06 05:04:22;;;;;;;38.70;23.48;;;12.50;99.90;;;;;;4896127;29;38861;-79
2021/09/06 05:06:49;;;;;;;52.40;24.90;;;12.50;99.90;;;;;;4900705;29;37615;-79
2021/09/06 05:09:15;;;;;;;38.05;23.45;;;12.50;99.90;;;;;;4889864;29;37799;-79
2021/09/06 05:11:41;;;;;;;38.35;22.92;;;12.50;99.90;;;;;;4896061;29;42018;-79
2021/09/06 05:14:07;;;;;;;38.53;25.10;;;12.50;99.90;;;;;;4902463;29;38813;-78
2021/09/06 05:16:33;;;;;;;38.10;23.52;;;12.50;99.90;;;;;;4897237;28;39673;-79
2021/09/06 05:18:59;;;;;;;35.97;22.58;;;12.50;99.90;;;;;;4913771;28;36266;-79
2021/09/06 05:21:25;;;;;;;34.58;23.15;;;12.50;99.90;;;;;;4894969;29;39288;-79
2021/09/06 05:23:52;;;;;;;39.85;23.23;;;12.50;99.90;;;;;;4899553;29;39084;-78
2021/09/06 05:26:18;;;;;;;39.20;24.38;;;12.50;99.90;;;;;;4883598;29;37829;-79
2021/09/06 05:28:44;;;;;;;42.35;24.70;;;12.50;99.90;;;;;;4901242;28;37407;-78
2021/09/06 05:31:13;;;;;;;44.65;25.15;;;12.50;99.90;;;;;;4903087;28;38907;-78
2021/09/06 05:33:39;;;;;;;42.55;23.98;;;12.60;99.90;;;;;;4898821;29;40953;-79
2021/09/06 05:36:06;;;;;;;41.60;23.92;;;12.60;99.90;;;;;;4901747;29;39760;-79
2021/09/06 05:38:32;;;;;;;38.55;25.27;;;12.60;99.90;;;;;;4918016;28;37731;-79
2021/09/06 05:40:59;;;;;;;44.15;25.38;;;12.60;99.90;;;;;;4886083;29;39603;-79
2021/09/06 05:43:25;;;;;;;38.63;22.98;;;12.60;99.90;;;;;;4902464;29;39430;-79
2021/09/06 05:45:51;;;;;;;39.25;23.45;;;12.70;99.90;;;;;;4904351;29;39435;-78
2021/09/06 05:48:17;;;;;;;43.75;24.17;;;12.70;99.90;;;;;;4894436;29;39298;-78
2021/09/06 05:50:43;;;;;;;39.70;23.88;;;12.70;99.90;;;;;;4894205;29;40132;-79
2021/09/06 05:53:11;;;;;;;42.20;23.63;;;12.80;99.90;;;;;;4905414;29;39444;-78
2021/09/06 05:55:37;;;;;;;39.08;24.10;;;12.80;99.90;;;;;;4911623;29;39321;-78
2021/09/06 05:58:03;;;;;;;36.88;23.23;;;12.90;99.90;;;;;;4917036;28;38327;-79
2021/09/06 06:00:29;;;;;;;36.15;24.08;;;13.00;99.90;;;;;;4900441;29;39257;-79
2021/09/06 06:02:55;;;;;;;37.70;24.17;;;13.10;99.90;;;;;;4892545;29;39804;-79
2021/09/06 06:05:21;;;;;;;45.55;25.02;;;13.10;99.90;;;;;;4906509;29;38280;-79
2021/09/06 06:07:47;;;;;;;42.28;24.38;;;13.20;99.90;;;;;;4899517;29;35873;-79
2021/09/06 06:10:13;;;;;;;39.78;23.55;;;13.20;99.90;;;;;;4897042;29;39705;-79
2021/09/06 06:12:39;;;;;;;48.63;26.38;;;13.20;99.90;;;;;;4904401;29;39657;-78
2021/09/06 06:15:06;;;;;;;41.55;25.10;;;13.30;99.90;;;;;;4901535;29;37625;-80
2021/09/06 06:17:33;;;;;;;42.45;24.27;;;13.30;99.90;;;;;;4905672;28;37276;-79
2021/09/06 06:19:59;;;;;;;36.72;24.25;;;13.40;99.90;;;;;;4889146;29;39503;-79
2021/09/06 06:22:25;;;;;;;36.33;23.17;;;13.40;99.90;;;;;;4903094;28;39286;-79
2021/09/06 06:24:51;;;;;;;40.53;24.88;;;13.50;99.90;;;;;;4905071;29;38274;-79
2021/09/06 06:27:17;;;;;;;43.70;25.58;;;13.50;99.90;;;;;;4901448;28;38009;-79
2021/09/06 06:29:43;;;;;;;44.08;25.85;;;13.60;99.90;;;;;;4902972;29;39628;-79
2021/09/06 06:32:09;;;;;;;46.90;26.42;;;13.70;99.90;;;;;;4911876;29;39123;-79
2021/09/06 06:34:35;;;;;;;51.90;27.73;;;13.70;99.90;;;;;;4886960;29;39384;-80
2021/09/06 06:37:01;;;;;;;53.97;31.20;;;13.90;99.90;;;;;;4908413;29;37505;-79
2021/09/06 06:39:27;;;;;;;51.17;30.95;;;14.00;99.90;;;;;;4909352;29;39954;-79
2021/09/06 06:41:53;;;;;;;54.60;31.90;;;14.20;99.90;;;;;;4907465;29;38861;-79
2021/09/06 06:44:19;;;;;;;52.55;29.25;;;14.30;99.90;;;;;;4903983;29;39459;-78
2021/09/06 06:46:45;;;;;;;57.60;33.13;;;14.40;99.90;;;;;;4899303;29;38587;-79
2021/09/06 06:49:12;;;;;;;49.88;29.52;;;14.50;99.90;;;;;;4906768;29;39888;-79
2021/09/06 06:51:38;;;;;;;56.55;33.53;;;14.60;99.90;;;;;;4901565;29;38821;-78
2021/09/06 06:54:05;;;;;;;54.47;30.60;;;14.80;99.90;;;;;;4900946;29;38463;-78
2021/09/06 06:56:31;;;;;;;67.18;34.28;;;14.90;99.90;;;;;;4888202;29;37819;-79
2021/09/06 06:58:57;;;;;;;61.78;34.67;;;15.00;99.90;;;;;;4923885;28;37943;-79
2021/09/06 07:01:23;;;;;;;55.47;33.53;;;15.20;99.90;;;;;;4908772;29;38465;-78
2021/09/06 07:03:50;;;;;;;45.70;30.70;;;15.30;99.90;;;;;;4908084;29;39771;-79
2021/09/06 07:06:16;;;;;;;51.50;32.15;;;15.50;99.90;;;;;;4921048;29;37265;-81
2021/09/06 07:08:42;;;;;;;51.60;32.00;;;15.60;99.90;;;;;;4910116;29;40100;-78
2021/09/06 07:11:08;;;;;;;50.85;30.40;;;15.70;99.90;;;;;;4897162;29;39487;-78
2021/09/06 07:13:34;;;;;;;47.30;30.60;;;15.80;99.90;;;;;;4908645;29;38951;-78
2021/09/06 07:16:00;;;;;;;56.10;34.20;;;15.90;99.90;;;;;;4906769;28;37228;-79
2021/09/06 07:18:27;;;;;;;47.47;30.92;;;16.10;99.90;;;;;;4921923;28;39951;-77
2021/09/06 07:20:53;;;;;;;44.92;29.67;;;16.10;99.90;;;;;;4882927;29;39298;-78
2021/09/06 07:23:19;;;;;;;44.88;29.70;;;16.20;99.90;;;;;;4906537;29;38892;-78
2021/09/06 07:25:45;;;;;;;46.50;30.23;;;16.40;99.90;;;;;;4917830;28;37350;-78
2021/09/06 07:28:11;;;;;;;43.80;29.52;;;16.50;99.90;;;;;;4906946;29;38745;-78
2021/09/06 07:30:37;;;;;;;40.85;27.70;;;16.60;99.90;;;;;;4902546;28;38519;-78
2021/09/06 07:33:06;;;;;;;46.72;27.67;;;16.80;99.90;;;;;;4910234;29;37638;-78
2021/09/06 07:35:33;;;;;;;47.22;30.48;;;16.90;99.90;;;;;;4906678;29;38405;-78
2021/09/06 07:37:59;;;;;;;41.00;26.67;;;17.00;99.90;;;;;;4926448;29;39413;-78
2021/09/06 07:40:26;;;;;;;42.30;27.08;;;17.10;99.90;;;;;;4911232;29;39073;-78
2021/09/06 07:42:52;;;;;;;45.30;28.33;;;17.30;99.90;;;;;;4909333;29;40263;-78
2021/09/06 07:45:18;;;;;;;36.28;25.48;;;17.50;99.90;;;;;;4921271;29;37951;-78
2021/09/06 07:47:44;;;;;;;41.08;27.05;;;17.70;99.90;;;;;;4902883;29;37695;-78
2021/09/06 07:50:11;;;;;;;36.83;26.20;;;17.90;99.90;;;;;;4907361;29;39790;-78
2021/09/06 07:52:38;;;;;;;38.70;26.23;;;18.10;99.90;;;;;;4904201;29;38546;-78
2021/09/06 07:55:06;;;;;;;35.75;24.73;;;18.30;99.90;;;;;;4902312;29;38097;-78
2021/09/06 07:57:33;;;;;;;39.08;25.33;;;18.50;99.90;;;;;;4903592;29;39316;-78
2021/09/06 08:00:00;;;;;;;32.78;23.80;;;18.60;99.90;;;;;;4916380;29;38868;-78
2021/09/06 08:02:26;;;;;;;33.80;23.63;;;18.70;99.90;;;;;;4907049;29;38061;-78
2021/09/06 08:04:52;;;;;;;35.33;24.90;;;18.80;99.90;;;;;;4917281;29;36125;-78
2021/09/06 08:07:19;;;;;;;34.75;25.02;;;19.10;99.90;;;;;;4904514;29;38629;-79
2021/09/06 08:09:45;;;;;;;32.67;23.80;;;19.20;99.90;;;;;;4904437;29;39817;-78
2021/09/06 08:12:11;;;;;;;33.00;24.45;;;19.30;99.90;;;;;;4907541;29;38274;-78
2021/09/06 08:14:38;;;;;;;33.28;23.10;;;19.60;99.90;;;;;;4905720;29;39376;-78
2021/09/06 08:17:04;;;;;;;30.10;21.60;;;19.70;99.90;;;;;;4902040;29;38491;-78
2021/09/06 08:19:31;;;;;;;28.70;21.25;;;19.90;99.90;;;;;;4907549;29;39876;-78
2021/09/06 08:21:57;;;;;;;35.42;22.10;;;20.10;99.90;;;;;;4909191;29;38773;-78
2021/09/06 08:24:24;;;;;;;31.38;22.85;;;19.90;99.90;;;;;;4906198;29;38338;-78
2021/09/06 08:26:51;;;;;;;28.98;21.65;;;20.00;99.90;;;;;;4899799;28;38975;-78
2021/09/06 08:29:17;;;;;;;31.98;21.73;;;20.20;99.90;;;;;;4911949;29;39556;-78
2021/09/06 08:31:44;;;;;;;29.95;20.73;;;20.30;99.90;;;;;;4889253;29;39233;-78
2021/09/06 08:34:10;;;;;;;29.63;20.75;;;20.40;99.90;;;;;;4906862;29;38129;-77
2021/09/06 08:36:36;;;;;;;26.45;19.15;;;20.40;99.90;;;;;;4894219;29;38600;-78
2021/09/06 08:39:03;;;;;;;27.15;19.05;;;20.50;99.90;;;;;;4893260;29;39303;-78
2021/09/06 08:41:31;;;;;;;23.10;18.13;;;20.80;99.90;;;;;;4897690;29;38525;-78
2021/09/06 08:43:57;;;;;;;26.55;19.08;;;21.20;99.90;;;;;;4908887;29;36564;-79
2021/09/06 08:46:24;;;;;;;22.17;16.73;;;21.50;99.90;;;;;;4906209;29;38803;-78
2021/09/06 08:48:51;;;;;;;24.00;16.25;;;21.90;99.90;;;;;;4902029;29;39418;-78
2021/09/06 08:51:18;;;;;;;21.00;16.15;;;22.00;99.90;;;;;;4901065;29;39315;-79
2021/09/06 08:53:44;;;;;;;21.65;17.00;;;22.10;99.90;;;;;;4909055;29;37672;-79
2021/09/06 08:56:11;;;;;;;19.40;15.57;;;22.00;99.90;;;;;;4903376;28;38643;-79
2021/09/06 08:58:37;;;;;;;23.17;16.02;;;22.00;99.90;;;;;;4908620;29;39767;-79
2021/09/06 09:01:03;;;;;;;23.27;17.23;;;22.20;99.90;;;;;;4907997;29;38616;-79
2021/09/06 09:03:29;;;;;;;25.20;18.05;;;22.20;99.90;;;;;;4908920;29;37875;-79
2021/09/06 09:05:57;;;;;;;20.27;15.73;;;22.30;99.90;;;;;;4908464;29;38945;-79
2021/09/06 09:08:23;;;;;;;20.67;15.70;;;22.40;99.90;;;;;;4892223;29;38075;-79
2021/09/06 09:10:50;;;;;;;20.10;14.48;;;22.40;99.90;;;;;;4901199;29;39251;-79
2021/09/06 09:13:17;;;;;;;21.48;15.10;;;22.50;99.90;;;;;;4905647;29;38207;-78
2021/09/06 09:15:53;;;;;;;21.77;15.40;;;22.50;99.90;;;;;;4903144;29;40425;-78
2021/09/06 09:18:27;;;;;;;18.92;13.82;;;22.70;99.90;;;;;;4913844;29;39801;-78
2021/09/06 09:20:59;;;;;;;21.17;14.93;;;22.70;99.90;;;;;;4903553;29;37507;-78
2021/09/06 09:23:43;;;;;;;19.25;13.60;;;22.90;99.90;;;;;;4901570;29;38003;-78
2021/09/06 09:26:09;;;;;;;24.33;16.50;;;23.20;99.90;;;;;;4887182;29;37830;-78
2021/09/06 09:28:44;;;;;;;20.25;14.73;;;23.40;99.90;;;;;;4904569;29;38851;-78
2021/09/06 09:31:17;;;;;;;18.90;14.18;;;23.40;99.90;;;;;;4905933;29;38669;-79
2021/09/06 09:33:49;;;;;;;20.10;14.27;;;23.60;99.90;;;;;;4884515;29;38394;-78
2021/09/06 09:36:28;;;;;;;22.33;15.80;;;23.50;99.90;;;;;;4901519;29;39728;-78
2021/09/06 09:39:08;;;;;;;18.88;14.07;;;23.60;99.90;;;;;;4896279;29;37984;-78
2021/09/06 09:41:35;;;;;;;19.23;14.10;;;23.60;99.90;;;;;;4904512;28;39194;-78
2021/09/06 09:44:09;;;;;;;20.38;14.45;;;23.70;99.90;;;;;;4906651;29;37449;-78
2021/09/06 09:46:38;;;;;;;22.15;13.75;;;23.70;99.90;;;;;;4898942;29;37710;-80
2021/09/06 09:49:15;;;;;;;19.95;13.90;;;23.60;99.90;;;;;;4928952;28;20059;-78
2021/09/06 09:51:42;;;;;;;19.73;13.23;;;23.40;99.90;;;;;;4913090;28;37855;-78
2021/09/06 09:54:08;;;;;;;15.35;11.30;;;23.40;99.90;;;;;;4926855;28;36862;-78
2021/09/06 09:56:34;;;;;;;13.88;11.82;;;23.60;99.90;;;;;;4908436;29;38601;-78
2021/09/06 09:59:01;;;;;;;14.73;10.90;;;23.60;99.90;;;;;;4909490;29;38113;-80
2021/09/06 10:01:36;;;;;;;18.55;12.77;;;23.90;99.90;;;;;;4914177;28;37733;-80
2021/09/06 10:04:06;;;;;;;15.82;12.35;;;24.10;99.90;;;;;;4925928;29;37044;-79
2021/09/06 10:06:32;;;;;;;17.42;12.93;;;24.10;99.90;;;;;;4935934;28;41216;-78
2021/09/06 10:08:59;;;;;;;19.27;14.27;;;23.80;99.90;;;;;;4930305;28;37817;-77
2021/09/06 10:11:39;;;;;;;18.08;11.98;;;23.60;99.90;;;;;;4925795;29;38783;-77
2021/09/06 10:14:31;;;;;;;14.55;10.38;;;23.70;99.90;;;;;;4922683;29;38149;-78
2021/09/06 10:17:03;;;;;;;15.30;11.38;;;24.10;99.90;;;;;;4925125;28;37929;-78
2021/09/06 10:19:40;;;;;;;;;;;24.00;99.90;;;;;;4934769;28;37684;-78
2021/09/06 10:22:06;;;;;;;13.40;10.65;;;24.20;99.90;;;;;;4927866;28;38539;-78
2021/09/06 10:24:36;;;;;;;17.58;12.07;;;24.10;99.90;;;;;;4928661;28;36909;-79
2021/09/06 10:27:04;;;;;;;16.23;11.10;;;24.00;99.90;;;;;;4928074;28;37326;-77
2021/09/06 10:29:31;;;;;;;13.50;9.20;;;24.20;99.90;;;;;;4914934;29;38324;-77
2021/09/06 10:31:59;;;;;;;13.05;9.65;;;24.50;99.90;;;;;;4917135;29;38150;-80
2021/09/06 10:34:29;;;;;;;13.63;9.80;;;24.40;99.90;;;;;;4914119;29;37075;-79
2021/09/06 10:37:01;;;;;;;12.75;9.13;;;24.40;99.90;;;;;;4917400;29;40387;-80
2021/09/06 10:39:27;;;;;;;11.25;8.65;;;24.40;99.90;;;;;;4923707;29;39038;-80
2021/09/06 10:42:03;;;;;;;14.85;9.52;;;24.70;99.90;;;;;;4912516;28;38219;-79
2021/09/06 10:44:35;;;;;;;16.80;10.18;;;25.10;99.90;;;;;;4930028;29;36847;-80
2021/09/06 10:47:12;;;;;;;18.50;11.48;;;25.30;99.90;;;;;;4914895;29;38190;-80
2021/09/06 10:49:41;;;;;;;16.33;12.40;;;25.10;99.90;;;;;;4918128;28;39570;-80
2021/09/06 10:52:14;;;;;;;13.55;11.48;;;25.20;99.90;;;;;;4940053;28;37072;-81
2021/09/06 10:54:41;;;;;;;16.38;12.60;;;25.20;99.90;;;;;;4929101;28;37263;-79
2021/09/06 10:57:08;;;;;;;18.23;12.90;;;25.30;99.90;;;;;;4942803;28;38264;-79
2021/09/06 10:59:35;;;;;;;15.85;11.38;;;25.50;99.90;;;;;;4944849;28;39389;-77
2021/09/06 11:02:07;;;;;;;12.07;9.30;;;25.60;99.90;;;;;;4933111;28;38574;-80
2021/09/06 11:04:35;;;;;;;11.02;8.93;;;25.60;99.90;;;;;;4932370;29;34273;-80
2021/09/06 11:07:06;;;;;;;12.75;9.63;;;25.60;99.90;;;;;;4925153;28;37630;-80
2021/09/06 11:09:36;;;;;;;10.85;8.18;;;25.80;99.90;;;;;;4940587;28;39930;-80
2021/09/06 11:12:08;;;;;;;12.60;9.02;;;26.20;99.90;;;;;;4919894;29;37297;-80
2021/09/06 11:14:40;;;;;;;13.38;8.63;;;26.40;99.90;;;;;;4925299;29;37479;-79
2021/09/06 11:17:21;;;;;;;10.20;8.57;;;26.60;99.90;;;;;;4928061;28;39705;-79
2021/09/06 11:19:49;;;;;;;18.98;12.95;;;26.90;99.90;;;;;;4950681;28;39389;-79
2021/09/06 11:22:18;;;;;;;15.38;11.57;;;26.20;99.90;;;;;;4914970;29;39775;-80
2021/09/06 11:24:45;;;;;;;15.95;12.15;;;25.70;99.90;;;;;;4912381;29;38531;-79
2021/09/06 11:27:30;;;;;;;17.55;12.40;;;25.30;99.90;;;;;;4920005;28;38500;-78
2021/09/06 11:29:58;;;;;;;16.05;10.88;;;24.40;99.90;;;;;;4928470;29;38956;-80
2021/09/06 11:32:26;;;;;;;16.30;11.85;;;24.20;99.90;;;;;;4922365;28;38272;-79
2021/09/06 11:35:07;;;;;;;13.82;9.75;;;24.20;99.90;;;;;;4934324;28;38357;-80
2021/09/06 11:37:34;;;;;;;14.13;9.68;;;24.20;99.90;;;;;;4921235;28;47325;-79
2021/09/06 11:40:03;;;;;;;13.57;9.93;;;24.40;99.90;;;;;;4910686;29;38852;-79
2021/09/06 11:42:30;;;;;;;11.70;10.25;;;24.20;99.90;;;;;;4937131;23;37626;-82
2021/09/06 11:44:57;;;;;;;12.07;9.23;;;24.20;99.90;;;;;;4878908;29;37728;-81
2021/09/06 11:47:24;;;;;;;15.23;9.77;;;24.10;99.90;;;;;;4901509;29;38788;-82
2021/09/06 11:49:58;;;;;;;12.23;9.75;;;24.20;99.90;;;;;;4893295;29;40489;-82
2021/09/06 11:52:34;;;;;;;12.77;10.57;;;24.20;99.90;;;;;;4909235;29;38989;-82
2021/09/06 11:55:02;;;;;;;13.77;9.80;;;24.30;99.90;;;;;;4888135;29;37906;-82
2021/09/06 11:57:32;;;;;;;15.00;9.90;;;24.20;99.90;;;;;;4902705;29;37876;-82
2021/09/06 11:59:59;;;;;;;14.07;10.30;;;24.10;99.90;;;;;;4891682;29;38056;-81
2021/09/06 12:02:26;;;;;;;14.55;10.55;;;24.00;99.90;;;;;;4900774;29;38272;-82
2021/09/06 12:05:06;;;;;;;14.30;11.13;;;23.90;99.90;;;;;;4903102;29;37723;-82
2021/09/06 12:07:35;;;;;;;14.88;9.88;;;23.70;99.90;;;;;;4884927;29;47041;-82
2021/09/06 12:10:01;;;;;;;15.32;10.57;;;23.70;99.90;;;;;;4889601;29;39261;-82
2021/09/06 12:12:27;;;;;;;13.77;10.23;;;24.00;99.90;;;;;;4884992;29;37457;-82
2021/09/06 12:14:54;;;;;;;15.23;10.93;;;24.30;99.90;;;;;;4894936;29;36303;-81
2021/09/06 12:17:21;;;;;;;13.77;10.45;;;24.40;99.90;;;;;;4889076;29;39099;-81
2021/09/06 12:19:50;;;;;;;14.32;11.63;;;24.60;99.90;;;;;;4898681;29;39322;-80
2021/09/06 12:22:21;;;;;;;18.05;12.02;;;24.60;99.90;;;;;;4901481;29;39279;-82
2021/09/06 12:24:49;;;;;;;14.35;10.93;;;24.50;99.90;;;;;;4885376;29;39176;-81
2021/09/06 12:27:20;;;;;;;14.48;12.07;;;24.60;99.90;;;;;;4883274;29;39757;-81
2021/09/06 12:29:57;;;;;;;13.45;9.77;;;24.60;99.90;;;;;;4903618;29;38805;-81